Pilot Magazine UKGA

About You

Log In Register UKGA membership

Flight planning

Flight planning New flightplan NOTAM map LARS map & NOTAMs Danger area, mil. & TRA activations Weather map GPS route download Find waypoints Your waypoints New waypoint

Forums

Forums Currently discussing "Unsubscribe"

Other items

Articles Events Links News Surveys Tips Other users Feedback UKGA membership About UKGA

METARs

UK

EGAA 090820Z AUTO 18003KT 140V200 0300 R25/0350N FZFG VV/// M03/M03 Q1010
EGAC 090820Z AUTO 19005KT 9999 NCD M02/M02 Q1010
EGAE 090820Z 22008KT 9999 VCSH FEW018 01/01 Q1010
EGBB 090820Z 30004KT 9000 NSC M02/M03 Q1009
EGBJ 090820Z 00000KT 9999 FEW028 BKN045 M01/M02 Q1009
EGCC 090820Z AUTO VRB02KT 9000 NCD M05/M06 Q1009
EGCK 090820Z AUTO 03005KT 8000 -RA SCT007/// SCT025/// BKN039/// 00/M00 Q1010 REFZRA
EGDM 090820Z 02005KT 9000 BR OVC008 M01/M02 Q1008 NOSIG RMK GRN GRN
EGDR 090820Z 05005KT 9999 FEW030 M02/M06 Q1008 NOSIG RMK BLU BLU
EGDY 090820Z 29001KT 4000 BR OVC014 M03/M04 Q1009 NOSIG RMK GRN GRN
EGEC 090820Z 34009KT 9999 SCT021 05/01 Q1008
EGEO 081550Z 02011KT CAVOK 03/M02 Q1013
EGFF 090820Z AUTO 03003KT 9999 SCT017 M01/M03 Q1010
EGGD 090820Z AUTO 03005KT 360V080 9999 OVC011 M00/M02 Q1009
EGGP 090820Z 19004KT 150V210 9000 FEW003 SCT030 M02/M03 Q1009
EGGW 090820Z AUTO 32006KT 280V350 1600 BR OVC002 M01/M01 Q1008
EGHC 090820Z 07011KT 9999 FEW027 00/M04 Q1008
EGHE 090820Z 06012KT 9999 FEW036 06/M01 Q1008
EGHH 090820Z 34001KT 5000 BR BKN010 M04/M04 Q1009
EGHI 090820Z 00000KT 7000 BKN007 M00/M01 Q1009 
EGHQ 090820Z 10008KT CAVOK M01/M04 Q1009
EGJA 090820Z 05008KT 020V080 9999 FEW030 04/M03 Q1007
EGJB 090820Z 03007KT 9999 FEW026 04/M01 Q1007
EGJJ 090820Z 10008KT 9999 FEW045 02/M00 Q1007
EGKA 090820Z 35010KT 7000 FEW008 M01/M02 Q1007
EGKB 090820Z 30004KT 270V350 1500 R21/P0750 BR BKN002 M01/M02 Q1007 
EGKK 090820Z 33006KT 7000 BKN005 M01/M02 Q1008
EGLC 090820Z AUTO 31006KT 270V010 3700 BR OVC003 01/M00 Q1009
EGLF 090820Z 30005KT 4100 BR OVC002 M01/M02 Q1008
EGLL 090820Z AUTO 32003KT 280V030 9999 OVC004 00/M01 Q1008
EGMC 090820Z 31006KT 0800 R23/1500 FZFG SCT001 OVC002 M01/M01 Q1007
EGMD 090820Z 33010KT 0200 FZFG OVC002 M01/M01 Q1008
EGNH 090820Z 12005KT 9999 SCT032 M04/M05 Q1008
EGNJ 090820Z 25009KT 9999 FEW038CB M01/M02 Q1007
EGNM 090820Z 29008KT CAVOK M02/M05 Q1007
EGNO 090820Z VRB02KT 9999 FEW035 M05/M05 Q1008
EGNR 090820Z VRB01KT 9999 FEW035 M05/M06 Q1009
EGNS 090820Z 31008KT 260V360 9999 SCT020CB 03/M00 Q1009
EGNT 090820Z 28010KT 9999 FEW026 M01/M03 Q1006
EGNV 090820Z 25006KT 9999 FEW025 M04/M06 Q1007
EGNX 090820Z 25007KT CAVOK M03/M04 Q1008
EGOM 090750Z AUTO 25005KT 9999 BKN029/// BKN062/// M04/M04 Q1005
EGOP 090750Z AUTO 06005KT 9999 NCD M03/M04 Q1010
EGOS 090820Z 19002KT 9999 MIFG FEW120 M04/M05 Q1009 NOSIG RMK BLU BLU
EGOV 090750Z 08007KT 9999 FEW025 FEW030CB BKN180 01/00 Q1009 NOSIG RMK BLACKBLU BLU
EGOW 090750Z 19003KT 9999 VCSH FEW018 M02/M03 Q1009 RMK BLU
EGPA 090820Z 02016KT 9999 VCSH FEW009 SCT018CB 03/01 Q1004
EGPB 090820Z 06015KT 9999 VCSH FEW015 SCT018CB 04/01 Q1004
EGPC 090820Z 28008KT 9999 VCSH FEW012 SCT027CB 01/00 Q1004
EGPD 090820Z AUTO 29011KT 6000 -RASN SCT011/// OVC016/// //////TCU 01/00 Q1004 TEMPO 3000 SHRASN BKN011
EGPE 090820Z 23008KT 9999 SCT038 01/M01 Q1006
EGPF 090820Z AUTO 21006KT 9999 NCD M02/M03 Q1008
EGPH 090820Z 25010KT CAVOK M00/M03 Q1007
EGPI 090820Z 02005KT 9999 FEW025 02/01 Q1009
EGPK 090820Z VRB02KT 9999 FEW040 M04/M06 Q1008
EGPL 090820Z 34003KT 9999 VCSH FEW010 SCT020CB 03/M01 Q1009
EGPN 090820Z 30009KT 9999 FEW030 02/M02 Q1006
EGPO 090820Z 33014KT 9999 VCSH FEW011CB SCT020 BKN035 02/01 Q1008
EGPU 090750Z AUTO 24005KT 9999 FEW025/// 01/00 Q1009 REUP
EGQA 081250Z 34009KT 9999 VCSH FEW009 SCT018CB BKN040 05/// Q1013 RMK WHT
EGQK 090750Z AUTO 24007KT 9999 OVC014/// 02/00 Q1006
EGQL 090750Z 25008KT 9999 FEW040 BKN170 00/M02 Q1005 RMK BLU
EGQM 090750Z AUTO 27013KT //// NCD 01/M02 Q1005
EGQS 090820Z 31020KT 9999 -SHRA FEW009 BKN018 BKN024 03/01 Q1005 TEMPO 4000 SHRASN SCT010CB RMK WHT TEMPO GRN
EGSC 090820Z 28004KT 8000 FEW010 SCT045 M02/M02 Q1008
EGSH 090820Z 36003KT 330V030 9999 3000E -RA SCT016 03/01 Q1007 TEMPO SHRA
EGSS 090820Z AUTO 33007KT 4500 BR OVC003 M00/M00 Q1007
EGSY 090820Z AUTO 07004KT 9999 NCD M04/M05 Q1009
EGTC 090820Z 28004KT 6000 FEW029 SCT049 M01/M01 Q1008
EGTE 090820Z VRB02KT 9999 BKN015 M04/M05 Q1009
EGTK 090820Z VRB03KT 8000 SCT029 M01/M02 Q1008
EGUB 090820Z 19001KT 1600 BR OVC005 M01/M01 Q1008 BECMG 4000 BKN007 RMK YLO2 BECMG GRN
EGUL 090821Z 24003KT 0800 FG OVC002 M01/M02 A2975 RMK VIS 3200 RWY06 SLP078
EGUN 090755Z 26004KT 6000 BR SCT030 BKN050 M02/M02 A2975 RMK AO2A SNB0657E24 SLP078 P0001 T10171017 $
EGUW 090822Z 32006KT 5000 BR FEW003 M01/M01 Q1007 BECMG 9999 NSW RMK WHT BECMG BLU
EGVA 090825Z 00000KT 9999 FEW014 BKN030 M01/M01 A2976 RMK AO2A SLP087 $
EGVN 090820Z 27002KT 7000 HZ SCT027 00/M01 Q1008 TEMPO 9999 NSW
EGVO 090750Z 32004KT 0900 FZFG FEW001 OVC002 M02/M02 Q1008 TEMPO 0500 BKN001 RMK AMB TEMPO RED
EGVP 090820Z 01008KT 9999 FEW005 BKN006 M00/M01 Q1008 TEMPO BKN009 RMK YLO1 TEMPO GRN
EGWU 090820Z 33005KT 6000 HZ BKN004 00/M01 Q1008 TEMPO BKN010 RMK YLO2 TEMPO GRN
EGXC 090820Z 32005KT CAVOK M01/M03 Q1007 NOSIG RMK BLU BLU
EGXE 090820Z 14002KT 9999 FEW025 M02/M05 Q1007 RMK BLU
EGXS 090750Z AUTO 25005KT 9999 NCD M01/M03 Q1007
EGXT 090820Z 30007KT CAVOK M01/M03 Q1007 RMK BLACKBLU
EGXV 090750Z AUTO 00000KT 9999 NCD M02/M04 Q1007
EGXW 090820Z 26006KT CAVOK M01/M03 Q1007 NOSIG RMK BLU BLU
EGXZ 090750Z AUTO 29003KT 9999 NCD M04/M05 Q1007
EGYD 090820Z 28008KT 9999 FEW020CB M01/M03 Q1007 NOSIG RMK BLACKBLU BLU
EGYE 090750Z 27010KT 9999 FEW020 ///// Q1007 RMK BLACKBLU
EGYH 090750Z AUTO 31008KT 9999 NCD M02/M03 Q1007
EGYM 090820Z 22003KT 2500 BR BKN003 M02/M03 Q1007 NOSIG RMK YLO2 YLO2
EGYP 090750Z 28010KT 9999 BKN030 02/01 Q0991

About You

Log In Register UKGA membership

Airfields

Interactive airfield map Search by name Search by postcode Search by location Fuel prices Pilot reviews Latest
(No favourites selected)

Flight planning

Flight planning New flightplan NOTAM map LARS map & NOTAMs Danger area, mil. & TRA activations Weather map GPS route download Find waypoints Your waypoints New waypoint

Forums

Forums Currently discussing "Unsubscribe"

Other items

Articles Events Links News Surveys Tips Other users Feedback UKGA membership About UKGA